ADDS METAR Data INFO
IDs: Format: Raw Decoded Include TAF

Data at: 1145 UTC 21 Jun 2018

KGRR 211053Z 08003KT 9SM BKN230 15/14 A2987 RMK AO2 SLP110 T01500139
KGRR 210953Z 00000KT 9SM MIFG BKN230 15/14 A2986 RMK AO2 SLP107 T01500139
KGRR 210853Z AUTO 00000KT 10SM CLR 15/14 A2985 RMK AO2 SLP105 T01500144 56008
KGRR 210753Z AUTO 00000KT 10SM CLR 16/15 A2986 RMK AO2 SLP107 T01610150
KGRR 210653Z AUTO 07003KT 8SM R26L/2400VP6000FT CLR 16/15 A2987 RMK AO2 SLP112 T01560150
KGRR 210553Z AUTO 00000KT 10SM CLR 17/16 A2987 RMK AO2 SLP115 T01670156 10222 20167 56004
KGRR 210453Z AUTO 00000KT 10SM CLR 17/16 A2988 RMK AO2 SLP115 T01720161 402330167
KGRR 210353Z 00000KT 10SM FEW160 SCT250 19/16 A2988 RMK AO2 SLP116 LAST T01890156
KGRR 210253Z 13003KT 10SM FEW055 SCT250 19/16 A2989 RMK AO2 SLP118 T01890161 50010
KGRR 210153Z 08003KT 10SM SCT055 BKN250 21/16 A2989 RMK AO2 SLP118 T02110161
KGRR 210053Z 08004KT 10SM BKN055 BKN250 22/16 A2987 RMK AO2 SLP113 T02170161
KGRR 202353Z 08005KT 10SM FEW034 BKN050 BKN250 22/16 A2985 RMK AO2 SLP107 T02220161 10233 20194 55002
KGRR 202253Z 08005KT 10SM SCT030 BKN050 OVC250 22/16 A2985 RMK AO2 SLP105 T02220161
KGRR 202219Z 08006KT 10SM BKN028 BKN050 OVC250 23/16 A2985 RMK AO2 T02280161
KGRR 202153Z 07008KT 10SM SCT026 BKN050 BKN250 23/16 A2985 RMK AO2 SLP105 T02280161
KGRR 202053Z VRB06KT 10SM SCT024 SCT160 BKN250 23/16 A2986 RMK AO2 SLP108 T02280161 58016
KGRR 201953Z 09007KT 10SM SCT022 BKN036 BKN160 22/16 A2989 RMK AO2 SLP120 T02170161
KGRR 201942Z 10007KT 10SM SCT022 BKN034 BKN160 21/16 A2989 RMK AO2 T02110156
KGRR 201853Z 06006KT 10SM SCT018 OVC025 21/16 A2990 RMK AO2 SLP124 T02060156
KGRR 201753Z 08008KT 10SM FEW017 OVC026 20/16 A2991 RMK AO2 CIG 016 RWY 8R SLP125 60001 T02000156 10200 20172 50001
KGRR 201653Z 06007KT 6SM BR BKN026 OVC037 18/17 A2991 RMK AO2 RAB15E53 SLP126 P0001 T01830167
KGRR 201627Z 04010KT 2SM -RA BR OVC022 18/16 A2992 RMK AO2 RAB15 P0001 T01780156
KGRR 201553Z 08007KT 10SM FEW017 OVC024 19/15 A2992 RMK AO2 SLP128 T01890150
KGRR 201453Z 08010KT 10SM BKN017 OVC026 19/15 A2991 RMK AO2 SLP124 T01890150 57000
KGRR 201353Z 09011KT 10SM FEW016 OVC026 18/15 A2990 RMK AO2 SLP123 T01780150
KGRR 201253Z 08011KT 10SM FEW010 OVC026 17/14 A2991 RMK AO2 SLP125 T01720144
KGRR 201153Z 08012KT 10SM FEW010 OVC025 18/13 A2991 RMK AO2 SLP123 60000 T01780133 10189 20172 55001
KGRR 201053Z 06009KT 10SM OVC023 18/14 A2990 RMK AO2 SLP120 T01780139
KGRR 200953Z 07007KT 10SM BKN025 OVC031 18/14 A2991 RMK AO2 RAE07 SLP124 P0000 T01780144
KGRR 200853Z AUTO 06006KT 9SM -RA OVC031 18/15 A2991 RMK AO2 RAB41 SLP125 P0000 60000 T01780150 56006
KGRR 200753Z AUTO 07007KT 10SM OVC032 18/14 A2991 RMK AO2 SLP125 T01780144
KGRR 200653Z AUTO 06008KT 10SM OVC034 18/15 A2992 RMK AO2 SLP129 T01830150
KGRR 200553Z AUTO 07009KT 10SM OVC035 19/15 A2993 RMK AO2 SLP131 T01890150 10228 20189 55003
KGRR 200453Z AUTO 07009KT 10SM OVC039 19/16 A2992 RMK AO2 SLP129 T01940156 402440194
KGRR 200353Z 06012KT 10SM OVC040 20/17 A2993 RMK AO2 SLP131 LAST T02000167
KGRR 200253Z 06013KT 10SM OVC038 21/18 A2994 RMK AO2 SLP133 T02110178 55005
KGRR 200153Z 08008KT 10SM OVC038 22/16 A2993 RMK AO2 SLP131 T02220161
KGRR 200053Z 08008KT 10SM FEW022 OVC040 22/16 A2994 RMK AO2 SLP134 T02220161
KGRR 192353Z 11007KT 10SM FEW022 OVC038 23/17 A2995 RMK AO2 SLP139 60000 T02280167 10244 20211 55000